sensor_id;sensor_type;location;lat;lon;timestamp;pressure;altitude;pressure_sealevel;temperature;humidity
72925;BME280;61070;50.794;7.054;2022-09-02T00:01:42;101074.34;;;17.85;48.57
72925;BME280;61070;50.794;7.054;2022-09-02T00:04:19;101073.97;;;17.95;48.30
72925;BME280;61070;50.794;7.054;2022-09-02T00:06:46;101074.28;;;17.86;48.18
72925;BME280;61070;50.794;7.054;2022-09-02T00:09:15;101068.34;;;17.78;48.37
72925;BME280;61070;50.794;7.054;2022-09-02T00:11:43;101069.22;;;17.79;48.55
72925;BME280;61070;50.794;7.054;2022-09-02T00:14:13;101073.59;;;17.81;48.47
72925;BME280;61070;50.794;7.054;2022-09-02T00:16:40;101062.75;;;17.84;48.53
72925;BME280;61070;50.794;7.054;2022-09-02T00:19:07;101065.69;;;17.77;48.71
72925;BME280;61070;50.794;7.054;2022-09-02T00:21:33;101066.53;;;17.79;48.43
72925;BME280;61070;50.794;7.054;2022-09-02T00:24:04;101063.06;;;17.75;48.69
72925;BME280;61070;50.794;7.054;2022-09-02T00:26:29;101068.50;;;17.73;48.93
72925;BME280;61070;50.794;7.054;2022-09-02T00:28:55;101060.81;;;17.63;49.50
72925;BME280;61070;50.794;7.054;2022-09-02T00:31:20;101050.97;;;17.63;49.49
72925;BME280;61070;50.794;7.054;2022-09-02T00:33:45;101049.94;;;17.67;49.23
72925;BME280;61070;50.794;7.054;2022-09-02T00:36:11;101060.84;;;17.61;49.52
72925;BME280;61070;50.794;7.054;2022-09-02T00:38:38;101055.56;;;17.60;49.51
72925;BME280;61070;50.794;7.054;2022-09-02T00:41:06;101049.63;;;17.50;49.92
72925;BME280;61070;50.794;7.054;2022-09-02T00:46:21;101051.34;;;17.53;49.76
72925;BME280;61070;50.794;7.054;2022-09-02T00:48:51;101052.38;;;17.49;50.03
72925;BME280;61070;50.794;7.054;2022-09-02T00:51:17;101053.38;;;17.46;50.29
72925;BME280;61070;50.794;7.054;2022-09-02T00:53:45;101048.09;;;17.43;50.55
72925;BME280;61070;50.794;7.054;2022-09-02T00:56:15;101049.03;;;17.42;50.33
72925;BME280;61070;50.794;7.054;2022-09-02T00:58:42;101047.59;;;17.32;50.63
72925;BME280;61070;50.794;7.054;2022-09-02T01:01:09;101046.00;;;17.26;50.96
72925;BME280;61070;50.794;7.054;2022-09-02T01:03:36;101050.59;;;17.23;51.10
72925;BME280;61070;50.794;7.054;2022-09-02T01:06:03;101050.63;;;17.21;51.29
72925;BME280;61070;50.794;7.054;2022-09-02T01:08:32;101053.34;;;17.20;51.36
72925;BME280;61070;50.794;7.054;2022-09-02T01:11:00;101050.78;;;17.16;51.51
72925;BME280;61070;50.794;7.054;2022-09-02T01:13:29;101048.28;;;17.12;51.19
72925;BME280;61070;50.794;7.054;2022-09-02T01:16:05;101042.00;;;17.13;51.61
72925;BME280;61070;50.794;7.054;2022-09-02T01:18:35;101045.75;;;17.07;51.70
72925;BME280;61070;50.794;7.054;2022-09-02T01:21:01;101046.72;;;17.05;51.72
72925;BME280;61070;50.794;7.054;2022-09-02T01:23:28;101051.09;;;17.07;51.94
72925;BME280;61070;50.794;7.054;2022-09-02T01:25:55;101061.03;;;17.04;52.14
72925;BME280;61070;50.794;7.054;2022-09-02T01:28:21;101046.38;;;16.89;52.21
72925;BME280;61070;50.794;7.054;2022-09-02T01:30:50;101046.16;;;16.95;52.10
72925;BME280;61070;50.794;7.054;2022-09-02T01:33:16;101048.06;;;16.92;52.15
72925;BME280;61070;50.794;7.054;2022-09-02T01:35:42;101041.88;;;16.90;52.01
72925;BME280;61070;50.794;7.054;2022-09-02T01:38:08;101037.47;;;16.87;52.49
72925;BME280;61070;50.794;7.054;2022-09-02T01:40:34;101043.69;;;16.89;52.44
72925;BME280;61070;50.794;7.054;2022-09-02T01:43:07;101038.22;;;16.92;52.33
72925;BME280;61070;50.794;7.054;2022-09-02T01:45:37;101039.81;;;16.98;52.49
72925;BME280;61070;50.794;7.054;2022-09-02T01:48:04;101037.41;;;16.90;52.65
72925;BME280;61070;50.794;7.054;2022-09-02T01:50:30;101036.59;;;16.88;52.41
72925;BME280;61070;50.794;7.054;2022-09-02T01:52:58;101032.94;;;16.91;52.15
72925;BME280;61070;50.794;7.054;2022-09-02T01:55:25;101039.03;;;16.94;52.05
72925;BME280;61070;50.794;7.054;2022-09-02T01:57:51;101033.59;;;16.97;51.84
72925;BME280;61070;50.794;7.054;2022-09-02T02:00:16;101029.44;;;16.88;52.23
72925;BME280;61070;50.794;7.054;2022-09-02T02:02:41;101031.38;;;16.83;52.25
72925;BME280;61070;50.794;7.054;2022-09-02T02:05:07;101031.41;;;16.82;52.34
72925;BME280;61070;50.794;7.054;2022-09-02T02:07:32;101032.19;;;16.85;52.18
72925;BME280;61070;50.794;7.054;2022-09-02T02:09:58;101029.72;;;16.79;52.16
72925;BME280;61070;50.794;7.054;2022-09-02T02:12:23;101029.63;;;16.82;52.03
72925;BME280;61070;50.794;7.054;2022-09-02T02:14:49;101034.09;;;16.82;51.93
72925;BME280;61070;50.794;7.054;2022-09-02T02:17:14;101029.13;;;16.70;52.44
72925;BME280;61070;50.794;7.054;2022-09-02T02:19:41;101033.41;;;16.75;52.50
72925;BME280;61070;50.794;7.054;2022-09-02T02:22:07;101032.50;;;16.76;52.18
72925;BME280;61070;50.794;7.054;2022-09-02T02:24:34;101034.34;;;16.74;52.20
72925;BME280;61070;50.794;7.054;2022-09-02T02:26:59;101039.72;;;16.73;51.99
72925;BME280;61070;50.794;7.054;2022-09-02T02:29:25;101041.59;;;16.71;51.90
72925;BME280;61070;50.794;7.054;2022-09-02T02:31:50;101027.53;;;16.63;52.36
72925;BME280;61070;50.794;7.054;2022-09-02T02:34:16;101033.09;;;16.56;52.58
72925;BME280;61070;50.794;7.054;2022-09-02T02:36:41;101031.41;;;16.54;52.60
72925;BME280;61070;50.794;7.054;2022-09-02T02:39:09;101037.84;;;16.47;52.71
72925;BME280;61070;50.794;7.054;2022-09-02T02:41:36;101040.41;;;16.50;52.55
72925;BME280;61070;50.794;7.054;2022-09-02T02:44:02;101031.53;;;16.49;52.51
72925;BME280;61070;50.794;7.054;2022-09-02T02:46:28;101026.94;;;16.53;52.51
72925;BME280;61070;50.794;7.054;2022-09-02T02:48:57;101027.69;;;16.58;52.49
72925;BME280;61070;50.794;7.054;2022-09-02T02:51:23;101032.56;;;16.45;52.60
72925;BME280;61070;50.794;7.054;2022-09-02T02:53:48;101029.94;;;16.44;52.82
72925;BME280;61070;50.794;7.054;2022-09-02T02:56:13;101028.03;;;16.47;52.63
72925;BME280;61070;50.794;7.054;2022-09-02T02:58:38;101023.59;;;16.46;52.76
72925;BME280;61070;50.794;7.054;2022-09-02T03:01:04;101031.13;;;16.62;52.39
72925;BME280;61070;50.794;7.054;2022-09-02T03:03:29;101039.97;;;16.65;52.17
72925;BME280;61070;50.794;7.054;2022-09-02T03:05:55;101030.31;;;16.59;52.65
72925;BME280;61070;50.794;7.054;2022-09-02T03:08:21;101038.44;;;16.56;52.56
72925;BME280;61070;50.794;7.054;2022-09-02T03:10:48;101029.66;;;16.51;52.76
72925;BME280;61070;50.794;7.054;2022-09-02T03:13:19;101029.50;;;16.57;52.52
72925;BME280;61070;50.794;7.054;2022-09-02T03:15:46;101027.75;;;16.56;52.67
72925;BME280;61070;50.794;7.054;2022-09-02T03:18:11;101027.75;;;16.56;52.74
72925;BME280;61070;50.794;7.054;2022-09-02T03:20:38;101025.94;;;16.57;52.72
72925;BME280;61070;50.794;7.054;2022-09-02T03:23:04;101029.34;;;16.62;52.16
72925;BME280;61070;50.794;7.054;2022-09-02T03:25:31;101031.34;;;16.55;52.28
72925;BME280;61070;50.794;7.054;2022-09-02T03:27:58;101026.94;;;16.54;52.57
72925;BME280;61070;50.794;7.054;2022-09-02T03:30:27;101024.97;;;16.59;52.50
72925;BME280;61070;50.794;7.054;2022-09-02T03:32:53;101028.69;;;16.55;52.59
72925;BME280;61070;50.794;7.054;2022-09-02T03:35:20;101021.53;;;16.56;52.45
72925;BME280;61070;50.794;7.054;2022-09-02T03:37:47;101017.22;;;16.50;52.77
72925;BME280;61070;50.794;7.054;2022-09-02T03:40:16;101026.06;;;16.52;52.80
72925;BME280;61070;50.794;7.054;2022-09-02T03:42:42;101020.72;;;16.52;52.55
72925;BME280;61070;50.794;7.054;2022-09-02T03:45:09;101011.81;;;16.52;52.56
72925;BME280;61070;50.794;7.054;2022-09-02T03:47:35;101013.56;;;16.54;52.65
72925;BME280;61070;50.794;7.054;2022-09-02T03:50:02;101014.16;;;16.63;52.68
72925;BME280;61070;50.794;7.054;2022-09-02T03:52:27;101009.63;;;16.65;52.18
72925;BME280;61070;50.794;7.054;2022-09-02T03:54:53;101014.03;;;16.67;52.13
72925;BME280;61070;50.794;7.054;2022-09-02T03:57:18;101015.03;;;16.63;52.33
72925;BME280;61070;50.794;7.054;2022-09-02T03:59:45;101013.16;;;16.67;52.49
72925;BME280;61070;50.794;7.054;2022-09-02T04:02:10;101012.25;;;16.68;52.16
72925;BME280;61070;50.794;7.054;2022-09-02T04:04:35;101006.00;;;16.67;52.23
72925;BME280;61070;50.794;7.054;2022-09-02T04:07:01;101010.47;;;16.68;51.94
72925;BME280;61070;50.794;7.054;2022-09-02T04:09:26;101008.75;;;16.66;51.98
72925;BME280;61070;50.794;7.054;2022-09-02T04:11:52;101005.19;;;16.65;51.99
72925;BME280;61070;50.794;7.054;2022-09-02T04:14:18;101004.13;;;16.71;51.92
72925;BME280;61070;50.794;7.054;2022-09-02T04:16:43;101004.69;;;16.52;52.49
72925;BME280;61070;50.794;7.054;2022-09-02T04:19:09;101010.81;;;16.56;52.16
72925;BME280;61070;50.794;7.054;2022-09-02T04:21:37;101001.94;;;16.55;52.51
72925;BME280;61070;50.794;7.054;2022-09-02T04:24:10;101011.22;;;16.44;52.77
72925;BME280;61070;50.794;7.054;2022-09-02T04:26:35;101005.88;;;16.44;52.69
72925;BME280;61070;50.794;7.054;2022-09-02T04:29:02;101008.59;;;16.42;52.67
72925;BME280;61070;50.794;7.054;2022-09-02T04:31:27;101003.41;;;16.36;53.06
72925;BME280;61070;50.794;7.054;2022-09-02T04:33:55;101006.34;;;16.56;52.46
72925;BME280;61070;50.794;7.054;2022-09-02T04:36:21;101003.13;;;16.45;52.88
72925;BME280;61070;50.794;7.054;2022-09-02T04:38:50;101005.97;;;16.39;52.81
72925;BME280;61070;50.794;7.054;2022-09-02T04:41:21;101000.09;;;16.28;53.21
72925;BME280;61070;50.794;7.054;2022-09-02T04:43:48;101008.06;;;16.29;52.91
72925;BME280;61070;50.794;7.054;2022-09-02T04:46:14;101008.13;;;16.28;53.13
72925;BME280;61070;50.794;7.054;2022-09-02T04:48:40;101006.59;;;16.19;53.25
72925;BME280;61070;50.794;7.054;2022-09-02T04:51:11;101003.91;;;16.19;53.14
72925;BME280;61070;50.794;7.054;2022-09-02T04:53:39;101007.50;;;16.20;53.24
72925;BME280;61070;50.794;7.054;2022-09-02T04:56:10;101003.03;;;16.20;53.33
72925;BME280;61070;50.794;7.054;2022-09-02T04:58:36;101001.06;;;16.25;53.00
72925;BME280;61070;50.794;7.054;2022-09-02T05:01:07;101007.78;;;16.39;52.78
72925;BME280;61070;50.794;7.054;2022-09-02T05:03:33;101005.16;;;16.37;52.78
72925;BME280;61070;50.794;7.054;2022-09-02T05:06:00;101013.00;;;16.43;52.51
72925;BME280;61070;50.794;7.054;2022-09-02T05:08:26;101007.59;;;16.45;52.75
72925;BME280;61070;50.794;7.054;2022-09-02T05:10:52;101006.75;;;16.44;52.78
72925;BME280;61070;50.794;7.054;2022-09-02T05:13:18;101003.25;;;16.41;52.75
72925;BME280;61070;50.794;7.054;2022-09-02T05:15:44;101002.22;;;16.46;52.83
72925;BME280;61070;50.794;7.054;2022-09-02T05:18:09;100998.50;;;16.50;52.83
72925;BME280;61070;50.794;7.054;2022-09-02T05:20:37;101000.25;;;16.51;52.76
72925;BME280;61070;50.794;7.054;2022-09-02T05:23:04;100999.31;;;16.54;52.66
72925;BME280;61070;50.794;7.054;2022-09-02T05:25:29;101003.50;;;16.61;52.49
72925;BME280;61070;50.794;7.054;2022-09-02T05:27:55;101001.88;;;16.57;52.40
72925;BME280;61070;50.794;7.054;2022-09-02T05:30:20;101003.84;;;16.50;52.67
72925;BME280;61070;50.794;7.054;2022-09-02T05:32:46;101008.75;;;16.66;52.57
72925;BME280;61070;50.794;7.054;2022-09-02T05:35:11;101002.63;;;16.60;52.72
72925;BME280;61070;50.794;7.054;2022-09-02T05:37:36;101005.25;;;16.62;52.56
72925;BME280;61070;50.794;7.054;2022-09-02T05:40:03;100998.97;;;16.63;52.42
72925;BME280;61070;50.794;7.054;2022-09-02T05:42:29;101005.06;;;16.70;52.50
72925;BME280;61070;50.794;7.054;2022-09-02T05:44:54;101004.25;;;16.68;52.33
72925;BME280;61070;50.794;7.054;2022-09-02T05:47:20;101005.22;;;16.64;52.93
72925;BME280;61070;50.794;7.054;2022-09-02T05:49:45;101010.13;;;16.79;52.33
72925;BME280;61070;50.794;7.054;2022-09-02T05:52:11;101007.56;;;16.74;52.46
72925;BME280;61070;50.794;7.054;2022-09-02T05:54:38;100999.59;;;16.73;52.54
72925;BME280;61070;50.794;7.054;2022-09-02T05:57:08;101003.72;;;16.83;52.59
72925;BME280;61070;50.794;7.054;2022-09-02T05:59:35;101004.56;;;16.85;52.43
72925;BME280;61070;50.794;7.054;2022-09-02T06:02:04;101005.81;;;17.01;52.04
72925;BME280;61070;50.794;7.054;2022-09-02T06:04:30;101007.09;;;17.16;52.03
72925;BME280;61070;50.794;7.054;2022-09-02T06:06:56;101009.66;;;17.19;51.91
72925;BME280;61070;50.794;7.054;2022-09-02T06:09:22;101007.59;;;17.27;51.84
72925;BME280;61070;50.794;7.054;2022-09-02T06:11:49;101005.16;;;17.46;51.46
72925;BME280;61070;50.794;7.054;2022-09-02T06:14:19;101008.34;;;17.31;51.85
72925;BME280;61070;50.794;7.054;2022-09-02T06:16:46;101008.91;;;17.40;51.96
72925;BME280;61070;50.794;7.054;2022-09-02T06:19:12;100998.13;;;17.42;51.87
72925;BME280;61070;50.794;7.054;2022-09-02T06:21:38;101000.50;;;17.51;51.85
72925;BME280;61070;50.794;7.054;2022-09-02T06:24:08;101002.09;;;17.57;51.59
72925;BME280;61070;50.794;7.054;2022-09-02T06:26:35;100998.38;;;17.61;51.38
72925;BME280;61070;50.794;7.054;2022-09-02T06:29:00;101004.47;;;17.64;51.75
72925;BME280;61070;50.794;7.054;2022-09-02T06:31:26;101000.69;;;17.71;51.36
72925;BME280;61070;50.794;7.054;2022-09-02T06:33:54;101004.19;;;17.73;51.70
72925;BME280;61070;50.794;7.054;2022-09-02T06:36:20;101005.06;;;17.74;51.37
72925;BME280;61070;50.794;7.054;2022-09-02T06:38:48;101005.25;;;17.93;51.54
72925;BME280;61070;50.794;7.054;2022-09-02T06:41:18;100999.09;;;17.91;51.62
72925;BME280;61070;50.794;7.054;2022-09-02T06:43:44;101000.66;;;17.96;51.15
72925;BME280;61070;50.794;7.054;2022-09-02T06:46:18;100993.06;;;18.08;50.91
72925;BME280;61070;50.794;7.054;2022-09-02T06:48:43;100999.78;;;17.96;51.19
72925;BME280;61070;50.794;7.054;2022-09-02T06:51:21;100995.63;;;18.11;51.00
72925;BME280;61070;50.794;7.054;2022-09-02T06:53:47;101000.72;;;18.18;50.58
72925;BME280;61070;50.794;7.054;2022-09-02T06:56:13;100999.22;;;18.33;50.57
72925;BME280;61070;50.794;7.054;2022-09-02T06:58:38;101000.91;;;18.59;50.26
72925;BME280;61070;50.794;7.054;2022-09-02T07:01:03;100997.03;;;18.66;50.02
72925;BME280;61070;50.794;7.054;2022-09-02T07:03:29;100999.72;;;18.66;50.04
72925;BME280;61070;50.794;7.054;2022-09-02T07:06:13;100990.00;;;18.85;49.88
72925;BME280;61070;50.794;7.054;2022-09-02T07:08:40;100991.75;;;18.86;49.59
72925;BME280;61070;50.794;7.054;2022-09-02T07:11:13;100984.38;;;18.92;49.55
72925;BME280;61070;50.794;7.054;2022-09-02T07:13:39;100987.50;;;19.23;48.86
72925;BME280;61070;50.794;7.054;2022-09-02T07:16:05;100984.28;;;19.15;48.99
72925;BME280;61070;50.794;7.054;2022-09-02T07:18:32;100983.78;;;19.05;49.25
72925;BME280;61070;50.794;7.054;2022-09-02T07:20:57;100976.63;;;19.26;49.65
72925;BME280;61070;50.794;7.054;2022-09-02T07:23:23;100971.59;;;19.39;48.84
72925;BME280;61070;50.794;7.054;2022-09-02T07:25:48;100966.47;;;19.33;48.23
72925;BME280;61070;50.794;7.054;2022-09-02T07:28:14;100975.09;;;19.41;48.53
72925;BME280;61070;50.794;7.054;2022-09-02T07:30:41;100967.75;;;19.44;48.82
72925;BME280;61070;50.794;7.054;2022-09-02T07:33:07;100973.56;;;19.56;48.58
72925;BME280;61070;50.794;7.054;2022-09-02T07:35:33;100970.13;;;19.72;48.91
72925;BME280;61070;50.794;7.054;2022-09-02T07:37:58;100967.06;;;19.80;47.73
72925;BME280;61070;50.794;7.054;2022-09-02T07:40:24;100962.06;;;19.91;47.65
72925;BME280;61070;50.794;7.054;2022-09-02T07:42:50;100971.03;;;20.11;46.82
72925;BME280;61070;50.794;7.054;2022-09-02T07:45:15;100966.38;;;20.33;46.73
72925;BME280;61070;50.794;7.054;2022-09-02T07:47:41;100965.81;;;20.45;46.26
72925;BME280;61070;50.794;7.054;2022-09-02T07:50:06;100965.81;;;20.45;46.43
72925;BME280;61070;50.794;7.054;2022-09-02T07:52:32;100964.41;;;20.55;45.18
72925;BME280;61070;50.794;7.054;2022-09-02T07:54:57;100967.81;;;20.59;45.43
72925;BME280;61070;50.794;7.054;2022-09-02T07:57:23;100966.06;;;20.58;45.21
72925;BME280;61070;50.794;7.054;2022-09-02T07:59:48;100955.31;;;20.58;45.94
72925;BME280;61070;50.794;7.054;2022-09-02T08:02:14;100958.78;;;20.60;45.44
72925;BME280;61070;50.794;7.054;2022-09-02T08:04:41;100960.09;;;20.70;45.12
72925;BME280;61070;50.794;7.054;2022-09-02T08:07:08;100958.75;;;20.61;45.59
72925;BME280;61070;50.794;7.054;2022-09-02T08:09:34;100956.53;;;20.70;45.09
72925;BME280;61070;50.794;7.054;2022-09-02T08:12:00;100961.28;;;20.82;44.76
72925;BME280;61070;50.794;7.054;2022-09-02T08:14:26;100959.34;;;20.85;44.36
72925;BME280;61070;50.794;7.054;2022-09-02T08:16:54;100954.25;;;20.79;44.48
72925;BME280;61070;50.794;7.054;2022-09-02T08:19:19;100956.03;;;20.98;44.78
72925;BME280;61070;50.794;7.054;2022-09-02T08:21:45;100962.28;;;20.98;44.00
72925;BME280;61070;50.794;7.054;2022-09-02T08:24:11;100962.59;;;21.09;43.81
72925;BME280;61070;50.794;7.054;2022-09-02T08:26:36;100947.94;;;21.15;43.55
72925;BME280;61070;50.794;7.054;2022-09-02T08:29:06;100947.19;;;21.30;43.64
72925;BME280;61070;50.794;7.054;2022-09-02T08:31:35;100946.38;;;21.28;43.28
72925;BME280;61070;50.794;7.054;2022-09-02T08:34:00;100953.56;;;21.28;43.21
72925;BME280;61070;50.794;7.054;2022-09-02T08:36:26;100949.38;;;21.39;43.54
72925;BME280;61070;50.794;7.054;2022-09-02T08:38:52;100947.41;;;21.43;43.40
72925;BME280;61070;50.794;7.054;2022-09-02T08:41:23;100942.78;;;21.45;42.82
72925;BME280;61070;50.794;7.054;2022-09-02T08:43:51;100944.84;;;21.57;43.17
72925;BME280;61070;50.794;7.054;2022-09-02T08:46:18;100945.78;;;21.56;42.98
72925;BME280;61070;50.794;7.054;2022-09-02T08:48:56;100944.25;;;21.68;42.73
72925;BME280;61070;50.794;7.054;2022-09-02T08:51:51;100947.03;;;21.66;42.48
72925;BME280;61070;50.794;7.054;2022-09-02T08:56:49;100942.91;;;22.10;42.23
72925;BME280;61070;50.794;7.054;2022-09-02T08:59:20;100942.38;;;22.34;41.90
72925;BME280;61070;50.794;7.054;2022-09-02T09:01:58;100943.50;;;22.30;41.28
72925;BME280;61070;50.794;7.054;2022-09-02T09:15:46;100919.31;;;22.75;40.19
72925;BME280;61070;50.794;7.054;2022-09-02T09:18:18;100919.03;;;22.95;39.39
72925;BME280;61070;50.794;7.054;2022-09-02T09:20:44;100918.88;;;22.82;39.21
72925;BME280;61070;50.794;7.054;2022-09-02T09:23:31;100917.84;;;22.85;39.00
72925;BME280;61070;50.794;7.054;2022-09-02T09:26:12;100905.53;;;22.95;38.42
72925;BME280;61070;50.794;7.054;2022-09-02T09:28:43;100903.72;;;23.10;38.60
72925;BME280;61070;50.794;7.054;2022-09-02T09:31:11;100905.00;;;23.18;38.76
72925;BME280;61070;50.794;7.054;2022-09-02T09:33:37;100897.91;;;23.46;37.37
72925;BME280;61070;50.794;7.054;2022-09-02T09:36:02;100898.38;;;23.52;36.51
72925;BME280;61070;50.794;7.054;2022-09-02T09:38:31;100903.34;;;23.60;35.98
72925;BME280;61070;50.794;7.054;2022-09-02T09:41:12;100896.09;;;23.61;35.94
72925;BME280;61070;50.794;7.054;2022-09-02T09:43:38;100904.13;;;23.91;35.84
72925;BME280;61070;50.794;7.054;2022-09-02T09:46:28;100889.03;;;23.87;35.89
72925;BME280;61070;50.794;7.054;2022-09-02T09:48:54;100889.25;;;24.25;34.92
72925;BME280;61070;50.794;7.054;2022-09-02T09:51:19;100889.41;;;24.50;34.03
72925;BME280;61070;50.794;7.054;2022-09-02T09:53:45;100878.50;;;24.37;33.64
72925;BME280;61070;50.794;7.054;2022-09-02T09:58:47;100876.34;;;24.70;32.52
72925;BME280;61070;50.794;7.054;2022-09-02T10:01:27;100872.78;;;24.42;32.91
72925;BME280;61070;50.794;7.054;2022-09-02T10:03:57;100874.59;;;24.68;32.76
72925;BME280;61070;50.794;7.054;2022-09-02T10:12:01;100869.16;;;24.68;33.06
72925;BME280;61070;50.794;7.054;2022-09-02T10:14:53;100872.97;;;24.66;32.33
72925;BME280;61070;50.794;7.054;2022-09-02T10:23:07;100863.53;;;24.59;32.56
72925;BME280;61070;50.794;7.054;2022-09-02T10:28:32;100860.50;;;24.63;31.95
72925;BME280;61070;50.794;7.054;2022-09-02T10:33:51;100852.25;;;24.65;32.10
72925;BME280;61070;50.794;7.054;2022-09-02T10:41:50;100854.97;;;25.05;30.80
72925;BME280;61070;50.794;7.054;2022-09-02T10:44:22;100845.59;;;24.96;31.29
72925;BME280;61070;50.794;7.054;2022-09-02T10:47:01;100843.56;;;25.12;30.96
72925;BME280;61070;50.794;7.054;2022-09-02T10:49:41;100839.00;;;25.25;30.57
72925;BME280;61070;50.794;7.054;2022-09-02T10:52:21;100841.63;;;25.52;29.55
72925;BME280;61070;50.794;7.054;2022-09-02T10:55:31;100837.94;;;25.53;29.28
72925;BME280;61070;50.794;7.054;2022-09-02T10:57:51;100832.06;;;25.72;29.20
72925;BME280;61070;50.794;7.054;2022-09-02T11:00:19;100833.06;;;25.71;28.45
72925;BME280;61070;50.794;7.054;2022-09-02T11:02:55;100836.88;;;25.93;28.60
72925;BME280;61070;50.794;7.054;2022-09-02T11:05:27;100821.44;;;26.06;28.39
72925;BME280;61070;50.794;7.054;2022-09-02T11:08:09;100828.94;;;26.26;27.92
72925;BME280;61070;50.794;7.054;2022-09-02T11:10:40;100828.59;;;26.07;27.46
72925;BME280;61070;50.794;7.054;2022-09-02T11:13:32;100819.34;;;26.09;27.18
72925;BME280;61070;50.794;7.054;2022-09-02T11:16:10;100817.22;;;26.50;27.63
72925;BME280;61070;50.794;7.054;2022-09-02T11:21:33;100807.78;;;26.66;27.02
72925;BME280;61070;50.794;7.054;2022-09-02T11:24:09;100812.78;;;26.95;26.65
72925;BME280;61070;50.794;7.054;2022-09-02T11:37:11;100794.16;;;26.55;27.36
72925;BME280;61070;50.794;7.054;2022-09-02T11:39:41;100798.63;;;27.14;27.17
72925;BME280;61070;50.794;7.054;2022-09-02T11:50:29;100789.47;;;27.60;25.92
72925;BME280;61070;50.794;7.054;2022-09-02T11:52:59;100784.19;;;27.69;25.66
72925;BME280;61070;50.794;7.054;2022-09-02T11:55:33;100777.84;;;27.80;25.74
72925;BME280;61070;50.794;7.054;2022-09-02T11:58:01;100778.81;;;27.90;25.46
72925;BME280;61070;50.794;7.054;2022-09-02T12:00:33;100780.19;;;27.73;25.21
72925;BME280;61070;50.794;7.054;2022-09-02T12:08:07;100778.13;;;27.21;25.79
72925;BME280;61070;50.794;7.054;2022-09-02T12:18:37;100754.97;;;27.04;26.49
72925;BME280;61070;50.794;7.054;2022-09-02T12:21:12;100765.13;;;27.36;26.01
72925;BME280;61070;50.794;7.054;2022-09-02T12:29:30;100752.25;;;28.14;25.36
72925;BME280;61070;50.794;7.054;2022-09-02T12:31:56;100761.59;;;28.01;25.40
72925;BME280;61070;50.794;7.054;2022-09-02T12:36:57;100759.53;;;27.48;25.81
72925;BME280;61070;50.794;7.054;2022-09-02T12:50:06;100739.75;;;27.46;26.20
72925;BME280;61070;50.794;7.054;2022-09-02T12:55:25;100734.81;;;27.18;26.36
72925;BME280;61070;50.794;7.054;2022-09-02T12:58:06;100725.41;;;26.99;26.52
72925;BME280;61070;50.794;7.054;2022-09-02T13:00:38;100732.31;;;26.92;26.82
72925;BME280;61070;50.794;7.054;2022-09-02T13:06:00;100727.72;;;26.70;27.28
72925;BME280;61070;50.794;7.054;2022-09-02T13:14:33;100715.88;;;26.83;26.35
72925;BME280;61070;50.794;7.054;2022-09-02T13:33:20;100689.69;;;27.92;25.16
72925;BME280;61070;50.794;7.054;2022-09-02T13:35:53;100690.94;;;27.88;25.27
72925;BME280;61070;50.794;7.054;2022-09-02T13:38:22;100684.72;;;27.65;24.68
72925;BME280;61070;50.794;7.054;2022-09-02T13:40:48;100680.13;;;27.54;25.22
72925;BME280;61070;50.794;7.054;2022-09-02T13:45:40;100665.81;;;27.41;24.74
72925;BME280;61070;50.794;7.054;2022-09-02T13:48:07;100665.88;;;27.51;24.73
72925;BME280;61070;50.794;7.054;2022-09-02T13:50:35;100657.59;;;27.64;24.58
72925;BME280;61070;50.794;7.054;2022-09-02T13:53:04;100658.84;;;27.92;24.62
72925;BME280;61070;50.794;7.054;2022-09-02T13:55:31;100664.91;;;27.95;24.24
72925;BME280;61070;50.794;7.054;2022-09-02T13:58:03;100660.22;;;27.86;24.19
72925;BME280;61070;50.794;7.054;2022-09-02T14:00:35;100665.53;;;27.67;24.63
72925;BME280;61070;50.794;7.054;2022-09-02T14:03:07;100658.34;;;27.66;24.56
72925;BME280;61070;50.794;7.054;2022-09-02T14:05:35;100657.16;;;27.25;24.26
72925;BME280;61070;50.794;7.054;2022-09-02T14:08:04;100653.63;;;27.56;24.37
72925;BME280;61070;50.794;7.054;2022-09-02T14:10:31;100653.81;;;27.44;23.97
72925;BME280;61070;50.794;7.054;2022-09-02T14:13:00;100642.66;;;27.47;24.65
72925;BME280;61070;50.794;7.054;2022-09-02T14:15:28;100645.28;;;27.80;24.08
72925;BME280;61070;50.794;7.054;2022-09-02T14:20:37;100628.59;;;27.63;23.64
72925;BME280;61070;50.794;7.054;2022-09-02T14:23:03;100631.84;;;27.68;24.03
72925;BME280;61070;50.794;7.054;2022-09-02T14:25:34;100629.88;;;27.59;24.33
72925;BME280;61070;50.794;7.054;2022-09-02T14:28:07;100625.72;;;27.43;24.14
72925;BME280;61070;50.794;7.054;2022-09-02T14:30:39;100621.75;;;27.47;23.95
72925;BME280;61070;50.794;7.054;2022-09-02T14:36:00;100621.41;;;27.73;23.84
72925;BME280;61070;50.794;7.054;2022-09-02T14:39:28;100621.81;;;27.68;23.48
72925;BME280;61070;50.794;7.054;2022-09-02T14:41:27;100614.56;;;27.90;24.09
72925;BME280;61070;50.794;7.054;2022-09-02T14:43:57;100615.91;;;27.52;24.01
72925;BME280;61070;50.794;7.054;2022-09-02T14:46:26;100610.56;;;27.94;23.68
72925;BME280;61070;50.794;7.054;2022-09-02T14:49:09;100614.41;;;27.91;23.62
72925;BME280;61070;50.794;7.054;2022-09-02T14:51:42;100616.19;;;27.81;23.46
72925;BME280;61070;50.794;7.054;2022-09-02T14:54:09;100615.03;;;27.51;24.00
72925;BME280;61070;50.794;7.054;2022-09-02T14:56:51;100608.13;;;27.47;23.98
72925;BME280;61070;50.794;7.054;2022-09-02T14:59:18;100624.31;;;27.49;23.94
72925;BME280;61070;50.794;7.054;2022-09-02T15:01:47;100615.47;;;27.79;23.64
72925;BME280;61070;50.794;7.054;2022-09-02T15:04:14;100623.97;;;27.85;23.77
72925;BME280;61070;50.794;7.054;2022-09-02T15:06:41;100608.81;;;27.72;23.73
72925;BME280;61070;50.794;7.054;2022-09-02T15:09:06;100609.25;;;27.88;23.91